GEC62P KRNO-KGPI
Flight info
| Callsign | GEC62P |
|---|---|
| Flight time | 1h 32m |
| Altitude | 35000 |
| Route | BLKJK PYGOW FUZII KOVRY EDOBE |
| Aircraft | B77L/H-SDE1E2E3FGHIJ2J3J4J5M1RWXY/LB1D1 |
Departure
| Time | 2026-05-05 14:18 |
|---|---|
| Airport | Reno Tahoe International Airport (KRNO) |
Arrival
| Time | 2026-05-05 15:50 |
|---|---|
| Airport | Glacier Park International Airport (KGPI) |
| Time | Latitude | Longitude | Altitude | Speed | Heading |
|---|---|---|---|---|---|
| 2026-05-05 14:02 | 39.50955 | -119.77360 | 4427 ft | 0 kts | 1° |
| 2026-05-05 14:08 | 39.50954 | -119.77360 | 4427 ft | 1 kts | 1° |
| 2026-05-05 14:08 | 39.50933 | -119.77362 | 4432 ft | 3 kts | 17° |
| 2026-05-05 14:09 | 39.50920 | -119.77366 | 4429 ft | 2 kts | 32° |
| 2026-05-05 14:09 | 39.50910 | -119.77376 | 4431 ft | 2 kts | 72° |
| 2026-05-05 14:09 | 39.50907 | -119.77390 | 4431 ft | 2 kts | 86° |
| 2026-05-05 14:09 | 39.50906 | -119.77404 | 4431 ft | 2 kts | 90° |
| 2026-05-05 14:10 | 39.50906 | -119.77413 | 4431 ft | 0 kts | 91° |
| 2026-05-05 14:11 | 39.50906 | -119.77409 | 4427 ft | 2 kts | 92° |
| 2026-05-05 14:11 | 39.50905 | -119.77367 | 4427 ft | 7 kts | 91° |
| 2026-05-05 14:11 | 39.50905 | -119.77291 | 4427 ft | 10 kts | 90° |
| 2026-05-05 14:12 | 39.50899 | -119.77200 | 4427 ft | 10 kts | 116° |
| 2026-05-05 14:12 | 39.50838 | -119.77157 | 4427 ft | 10 kts | 178° |
| 2026-05-05 14:12 | 39.50766 | -119.77157 | 4427 ft | 10 kts | 174° |
| 2026-05-05 14:12 | 39.50693 | -119.77152 | 4427 ft | 10 kts | 178° |
| 2026-05-05 14:13 | 39.50619 | -119.77151 | 4427 ft | 11 kts | 180° |
| 2026-05-05 14:13 | 39.50539 | -119.77151 | 4426 ft | 12 kts | 180° |
| 2026-05-05 14:13 | 39.50440 | -119.77151 | 4426 ft | 18 kts | 180° |
| 2026-05-05 14:13 | 39.50289 | -119.77152 | 4425 ft | 23 kts | 180° |
| 2026-05-05 14:14 | 39.50130 | -119.77152 | 4425 ft | 23 kts | 180° |
| 2026-05-05 14:14 | 39.49971 | -119.77152 | 4424 ft | 23 kts | 180° |
| 2026-05-05 14:14 | 39.49813 | -119.77152 | 4423 ft | 23 kts | 180° |
| 2026-05-05 14:14 | 39.49654 | -119.77152 | 4422 ft | 23 kts | 180° |
| 2026-05-05 14:15 | 39.49495 | -119.77153 | 4423 ft | 23 kts | 182° |
| 2026-05-05 14:15 | 39.49337 | -119.77154 | 4423 ft | 23 kts | 180° |
| 2026-05-05 14:15 | 39.49178 | -119.77155 | 4423 ft | 23 kts | 180° |
| 2026-05-05 14:15 | 39.49022 | -119.77157 | 4423 ft | 23 kts | 180° |
| 2026-05-05 14:16 | 39.48925 | -119.77067 | 4423 ft | 19 kts | 94° |
| 2026-05-05 14:16 | 39.48926 | -119.76897 | 4422 ft | 19 kts | 91° |
| 2026-05-05 14:16 | 39.48926 | -119.76728 | 4419 ft | 17 kts | 78° |
| 2026-05-05 14:16 | 39.48992 | -119.76684 | 4419 ft | 0 kts | 1° |
| 2026-05-05 14:17 | 39.49033 | -119.76683 | 4420 ft | 20 kts | 1° |
| 2026-05-05 14:17 | 39.49434 | -119.76682 | 4425 ft | 97 kts | 0° |
| 2026-05-05 14:17 | 39.50366 | -119.76679 | 4423 ft | 168 kts | 360° |
| 2026-05-05 14:17 | 39.51668 | -119.76685 | 4765 ft | 195 kts | 359° |
| 2026-05-05 14:18 | 39.53035 | -119.76745 | 5462 ft | 197 kts | 357° |
| 2026-05-05 14:18 | 39.54450 | -119.76801 | 5903 ft | 214 kts | 357° |
| 2026-05-05 14:18 | 39.56005 | -119.76667 | 6088 ft | 237 kts | 18° |
| 2026-05-05 14:18 | 39.57444 | -119.75435 | 6290 ft | 262 kts | 42° |
| 2026-05-05 14:19 | 39.58795 | -119.73750 | 6799 ft | 273 kts | 43° |
| 2026-05-05 14:19 | 39.60179 | -119.72050 | 7646 ft | 274 kts | 42° |
| 2026-05-05 14:19 | 39.61570 | -119.70368 | 8603 ft | 272 kts | 41° |
| 2026-05-05 14:19 | 39.62956 | -119.68712 | 9598 ft | 269 kts | 41° |
| 2026-05-05 14:20 | 39.64317 | -119.67103 | 10470 ft | 269 kts | 41° |
| 2026-05-05 14:20 | 39.65775 | -119.65395 | 10826 ft | 291 kts | 41° |
| 2026-05-05 14:20 | 39.67349 | -119.63561 | 11025 ft | 318 kts | 41° |
| 2026-05-05 14:20 | 39.69063 | -119.61572 | 11255 ft | 342 kts | 41° |
| 2026-05-05 14:21 | 39.70845 | -119.59508 | 11847 ft | 353 kts | 41° |
| 2026-05-05 14:21 | 39.72696 | -119.57367 | 12723 ft | 359 kts | 41° |
| 2026-05-05 14:21 | 39.74569 | -119.55203 | 13675 ft | 362 kts | 41° |
| 2026-05-05 14:21 | 39.76461 | -119.53016 | 14484 ft | 367 kts | 41° |
| 2026-05-05 14:22 | 39.78387 | -119.50789 | 15195 ft | 373 kts | 41° |
| 2026-05-05 14:22 | 39.80337 | -119.48533 | 15956 ft | 378 kts | 41° |
| 2026-05-05 14:22 | 39.82314 | -119.46244 | 16739 ft | 382 kts | 41° |
| 2026-05-05 14:22 | 39.84310 | -119.43932 | 17544 ft | 386 kts | 41° |
| 2026-05-05 14:23 | 39.86330 | -119.41589 | 18296 ft | 391 kts | 41° |
| 2026-05-05 14:23 | 39.88370 | -119.39222 | 18991 ft | 394 kts | 41° |
| 2026-05-05 14:23 | 39.90419 | -119.36842 | 19695 ft | 396 kts | 41° |
| 2026-05-05 14:23 | 39.92475 | -119.34451 | 19880 ft | 398 kts | 41° |
| 2026-05-05 14:24 | 39.94540 | -119.32048 | 19881 ft | 398 kts | 41° |
| 2026-05-05 14:24 | 39.96605 | -119.29645 | 19885 ft | 397 kts | 41° |
| 2026-05-05 14:24 | 39.98661 | -119.27250 | 19885 ft | 397 kts | 41° |
| 2026-05-05 14:24 | 40.00759 | -119.24911 | 19890 ft | 396 kts | 37° |
| 2026-05-05 14:25 | 40.03014 | -119.22840 | 19896 ft | 397 kts | 33° |
| 2026-05-05 14:25 | 40.05419 | -119.21066 | 19888 ft | 397 kts | 28° |
| 2026-05-05 14:25 | 40.07046 | -119.19957 | 19891 ft | 398 kts | 28° |
| 2026-05-05 14:25 | 40.09506 | -119.18281 | 19889 ft | 399 kts | 28° |
| 2026-05-05 14:26 | 40.11970 | -119.16600 | 20235 ft | 401 kts | 28° |
| 2026-05-05 14:26 | 40.14445 | -119.14908 | 20990 ft | 402 kts | 28° |
| 2026-05-05 14:26 | 40.17722 | -119.12657 | 22011 ft | 403 kts | 28° |
| 2026-05-05 14:26 | 40.19401 | -119.11500 | 22446 ft | 405 kts | 28° |
| 2026-05-05 14:27 | 40.21908 | -119.09770 | 23080 ft | 409 kts | 28° |
| 2026-05-05 14:27 | 40.24441 | -119.08018 | 23677 ft | 413 kts | 28° |
| 2026-05-05 14:27 | 40.26989 | -119.06255 | 24268 ft | 414 kts | 28° |
| 2026-05-05 14:27 | 40.29537 | -119.04489 | 24887 ft | 415 kts | 28° |
| 2026-05-05 14:28 | 40.32064 | -119.02736 | 25492 ft | 417 kts | 29° |
| 2026-05-05 14:28 | 40.34631 | -119.00953 | 26051 ft | 419 kts | 29° |
| 2026-05-05 14:28 | 40.37210 | -118.99160 | 26592 ft | 421 kts | 29° |
| 2026-05-05 14:28 | 40.39808 | -118.97352 | 27134 ft | 423 kts | 29° |
| 2026-05-05 14:29 | 40.42419 | -118.95534 | 27666 ft | 425 kts | 29° |
| 2026-05-05 14:29 | 40.45039 | -118.93707 | 28154 ft | 428 kts | 29° |
| 2026-05-05 14:29 | 40.47683 | -118.91863 | 28633 ft | 431 kts | 29° |
| 2026-05-05 14:29 | 40.50338 | -118.90010 | 29102 ft | 433 kts | 30° |
| 2026-05-05 14:30 | 40.53004 | -118.88148 | 29569 ft | 435 kts | 30° |
| 2026-05-05 14:30 | 40.55675 | -118.86280 | 30002 ft | 436 kts | 30° |
| 2026-05-05 14:30 | 40.58359 | -118.84401 | 30392 ft | 436 kts | 30° |
| 2026-05-05 14:30 | 40.61029 | -118.82532 | 30913 ft | 433 kts | 30° |
| 2026-05-05 14:31 | 40.63676 | -118.80676 | 31509 ft | 429 kts | 30° |
| 2026-05-05 14:31 | 40.66296 | -118.78839 | 32057 ft | 425 kts | 30° |
| 2026-05-05 14:31 | 40.68891 | -118.77016 | 32587 ft | 422 kts | 30° |
| 2026-05-05 14:31 | 40.71470 | -118.75202 | 33091 ft | 419 kts | 30° |
| 2026-05-05 14:32 | 40.74035 | -118.73397 | 33582 ft | 416 kts | 30° |
| 2026-05-05 14:32 | 40.76582 | -118.71603 | 34032 ft | 413 kts | 30° |
| 2026-05-05 14:32 | 40.79118 | -118.69815 | 34337 ft | 413 kts | 30° |
| 2026-05-05 14:32 | 40.81660 | -118.68021 | 34541 ft | 415 kts | 30° |
| 2026-05-05 14:33 | 40.84211 | -118.66218 | 34757 ft | 417 kts | 30° |
| 2026-05-05 14:33 | 40.86786 | -118.64397 | 34805 ft | 421 kts | 30° |
| 2026-05-05 14:33 | 40.91953 | -118.60739 | 34850 ft | 418 kts | 30° |
| 2026-05-05 14:34 | 40.97007 | -118.57157 | 34859 ft | 413 kts | 30° |
| 2026-05-05 14:34 | 41.02075 | -118.53557 | 34862 ft | 413 kts | 30° |
| 2026-05-05 14:35 | 41.07150 | -118.49945 | 34862 ft | 414 kts | 30° |
| 2026-05-05 14:35 | 41.12240 | -118.46316 | 34857 ft | 415 kts | 30° |
| 2026-05-05 14:36 | 41.17327 | -118.42683 | 34855 ft | 415 kts | 30° |
| 2026-05-05 14:36 | 41.22418 | -118.39042 | 34857 ft | 415 kts | 30° |
| 2026-05-05 14:37 | 41.27505 | -118.35397 | 34861 ft | 416 kts | 30° |
| 2026-05-05 14:37 | 41.32601 | -118.31738 | 34861 ft | 417 kts | 30° |
| 2026-05-05 14:38 | 41.37704 | -118.28068 | 34846 ft | 417 kts | 30° |
| 2026-05-05 14:38 | 41.42806 | -118.24392 | 34849 ft | 416 kts | 30° |
| 2026-05-05 14:39 | 41.47900 | -118.20716 | 34852 ft | 416 kts | 30° |
| 2026-05-05 14:39 | 41.52987 | -118.17037 | 34852 ft | 415 kts | 30° |
| 2026-05-05 14:40 | 41.58038 | -118.13378 | 34848 ft | 415 kts | 30° |
| 2026-05-05 14:40 | 41.63112 | -118.09695 | 34846 ft | 415 kts | 30° |
| 2026-05-05 14:41 | 41.68182 | -118.06009 | 34850 ft | 414 kts | 30° |
| 2026-05-05 14:41 | 41.73251 | -118.02318 | 34841 ft | 415 kts | 30° |
| 2026-05-05 14:42 | 41.78314 | -117.98623 | 34849 ft | 414 kts | 30° |
| 2026-05-05 14:42 | 41.83376 | -117.94923 | 34849 ft | 414 kts | 30° |
| 2026-05-05 14:43 | 41.88433 | -117.91220 | 34836 ft | 414 kts | 30° |
| 2026-05-05 14:43 | 41.93490 | -117.87510 | 34854 ft | 414 kts | 30° |
| 2026-05-05 14:44 | 41.98540 | -117.83798 | 34844 ft | 414 kts | 30° |
| 2026-05-05 14:44 | 42.03600 | -117.80071 | 34861 ft | 414 kts | 30° |
| 2026-05-05 14:45 | 42.08654 | -117.76343 | 34823 ft | 414 kts | 30° |
| 2026-05-05 14:45 | 42.13705 | -117.72611 | 34844 ft | 414 kts | 30° |
| 2026-05-05 14:46 | 42.18721 | -117.68897 | 34857 ft | 414 kts | 30° |
| 2026-05-05 14:46 | 42.23803 | -117.65127 | 34850 ft | 414 kts | 30° |
| 2026-05-05 14:47 | 42.28857 | -117.61371 | 34857 ft | 415 kts | 30° |
| 2026-05-05 14:47 | 42.33913 | -117.57607 | 34850 ft | 415 kts | 30° |
| 2026-05-05 14:48 | 42.38944 | -117.53855 | 34866 ft | 415 kts | 30° |
| 2026-05-05 14:48 | 42.44009 | -117.50070 | 34863 ft | 416 kts | 30° |
| 2026-05-05 14:49 | 42.49077 | -117.46275 | 34863 ft | 416 kts | 30° |
| 2026-05-05 14:49 | 42.54141 | -117.42477 | 34854 ft | 416 kts | 30° |
| 2026-05-05 14:50 | 42.59207 | -117.38670 | 34839 ft | 416 kts | 29° |
| 2026-05-05 14:50 | 42.64270 | -117.34858 | 34848 ft | 416 kts | 29° |
| 2026-05-05 14:51 | 42.69333 | -117.31038 | 34849 ft | 416 kts | 29° |
| 2026-05-05 14:51 | 42.74394 | -117.27213 | 34844 ft | 416 kts | 29° |
| 2026-05-05 14:52 | 42.79454 | -117.23383 | 34840 ft | 416 kts | 29° |
| 2026-05-05 14:52 | 42.84657 | -117.19938 | 34854 ft | 416 kts | 22° |
| 2026-05-05 14:53 | 42.90176 | -117.17543 | 34850 ft | 417 kts | 16° |
| 2026-05-05 14:53 | 42.95829 | -117.15714 | 34845 ft | 418 kts | 15° |
| 2026-05-05 14:54 | 43.01488 | -117.13902 | 34838 ft | 418 kts | 15° |
| 2026-05-05 14:54 | 43.07150 | -117.12067 | 34836 ft | 418 kts | 15° |
| 2026-05-05 14:55 | 43.12801 | -117.10219 | 34855 ft | 418 kts | 15° |
| 2026-05-05 14:55 | 43.18420 | -117.08373 | 34844 ft | 418 kts | 15° |
| 2026-05-05 14:56 | 43.24112 | -117.06498 | 34845 ft | 418 kts | 15° |
| 2026-05-05 14:56 | 43.29734 | -117.04644 | 34839 ft | 418 kts | 15° |
| 2026-05-05 14:57 | 43.35390 | -117.02775 | 34831 ft | 418 kts | 15° |
| 2026-05-05 14:57 | 43.41039 | -117.00904 | 34843 ft | 417 kts | 15° |
| 2026-05-05 14:58 | 43.46687 | -116.99031 | 34843 ft | 417 kts | 15° |
| 2026-05-05 14:58 | 43.52335 | -116.97154 | 34847 ft | 418 kts | 15° |
| 2026-05-05 14:59 | 43.57949 | -116.95284 | 34846 ft | 418 kts | 15° |
| 2026-05-05 14:59 | 43.63596 | -116.93400 | 34864 ft | 417 kts | 15° |
| 2026-05-05 15:00 | 43.68325 | -116.91820 | 34861 ft | 417 kts | 15° |
| 2026-05-05 15:00 | 43.74907 | -116.89615 | 34871 ft | 416 kts | 14° |
| 2026-05-05 15:01 | 43.80532 | -116.87728 | 34848 ft | 416 kts | 14° |
| 2026-05-05 15:01 | 43.86114 | -116.85851 | 34882 ft | 415 kts | 14° |
| 2026-05-05 15:02 | 43.91727 | -116.83960 | 34889 ft | 415 kts | 14° |
| 2026-05-05 15:02 | 43.97342 | -116.82065 | 34892 ft | 415 kts | 14° |
| 2026-05-05 15:03 | 44.02950 | -116.80168 | 34921 ft | 414 kts | 14° |
| 2026-05-05 15:03 | 44.08552 | -116.78270 | 34890 ft | 414 kts | 14° |
| 2026-05-05 15:04 | 44.14144 | -116.76371 | 34865 ft | 413 kts | 14° |
| 2026-05-05 15:04 | 44.19716 | -116.74476 | 34850 ft | 412 kts | 14° |
| 2026-05-05 15:05 | 44.28044 | -116.71636 | 34833 ft | 410 kts | 14° |
| 2026-05-05 15:06 | 44.33584 | -116.69742 | 34835 ft | 410 kts | 14° |
| 2026-05-05 15:06 | 44.39117 | -116.67847 | 34836 ft | 409 kts | 13° |
| 2026-05-05 15:07 | 44.44618 | -116.65959 | 34841 ft | 409 kts | 13° |
| 2026-05-05 15:07 | 44.50141 | -116.64060 | 34849 ft | 409 kts | 13° |
| 2026-05-05 15:08 | 44.55660 | -116.62159 | 34848 ft | 408 kts | 13° |
| 2026-05-05 15:08 | 44.61178 | -116.60254 | 34839 ft | 408 kts | 13° |
| 2026-05-05 15:09 | 44.66688 | -116.58348 | 34868 ft | 408 kts | 13° |
| 2026-05-05 15:09 | 44.71307 | -116.56748 | 34852 ft | 408 kts | 13° |
| 2026-05-05 15:10 | 44.77710 | -116.54525 | 34862 ft | 408 kts | 13° |
| 2026-05-05 15:10 | 44.82339 | -116.52915 | 34859 ft | 409 kts | 13° |
| 2026-05-05 15:11 | 44.87873 | -116.50986 | 34859 ft | 410 kts | 13° |
| 2026-05-05 15:11 | 44.93384 | -116.49062 | 34880 ft | 412 kts | 13° |
| 2026-05-05 15:12 | 44.98961 | -116.47111 | 34886 ft | 414 kts | 13° |
| 2026-05-05 15:12 | 45.04555 | -116.45150 | 34881 ft | 414 kts | 13° |
| 2026-05-05 15:13 | 45.10144 | -116.43186 | 34881 ft | 413 kts | 13° |
| 2026-05-05 15:13 | 45.15729 | -116.41219 | 34882 ft | 414 kts | 13° |
| 2026-05-05 15:14 | 45.21298 | -116.39200 | 34917 ft | 411 kts | 15° |
| 2026-05-05 15:14 | 45.26655 | -116.36252 | 34922 ft | 414 kts | 21° |
| 2026-05-05 15:15 | 45.31928 | -116.32942 | 34905 ft | 414 kts | 21° |
| 2026-05-05 15:15 | 45.37172 | -116.29660 | 34914 ft | 415 kts | 21° |
| 2026-05-05 15:16 | 45.42460 | -116.26356 | 34902 ft | 415 kts | 21° |
| 2026-05-05 15:16 | 45.47734 | -116.23058 | 34915 ft | 413 kts | 21° |
| 2026-05-05 15:17 | 45.52990 | -116.19762 | 34917 ft | 412 kts | 21° |
| 2026-05-05 15:17 | 45.58231 | -116.16471 | 34923 ft | 411 kts | 20° |
| 2026-05-05 15:18 | 45.63459 | -116.13181 | 34933 ft | 410 kts | 20° |
| 2026-05-05 15:18 | 45.68677 | -116.09893 | 34917 ft | 408 kts | 20° |
| 2026-05-05 15:19 | 45.73842 | -116.06628 | 34966 ft | 408 kts | 20° |
| 2026-05-05 15:19 | 45.79043 | -116.03336 | 34973 ft | 409 kts | 20° |
| 2026-05-05 15:20 | 45.84249 | -116.00034 | 34998 ft | 410 kts | 20° |
| 2026-05-05 15:20 | 45.89464 | -115.96719 | 34987 ft | 409 kts | 20° |
| 2026-05-05 15:21 | 45.94673 | -115.93398 | 34984 ft | 409 kts | 20° |
| 2026-05-05 15:21 | 45.99875 | -115.90077 | 34983 ft | 409 kts | 20° |
| 2026-05-05 15:22 | 46.05073 | -115.86753 | 34984 ft | 409 kts | 20° |
| 2026-05-05 15:22 | 46.10269 | -115.83422 | 34986 ft | 409 kts | 20° |
| 2026-05-05 15:23 | 46.15460 | -115.80087 | 34966 ft | 408 kts | 20° |
| 2026-05-05 15:23 | 46.20602 | -115.76776 | 34966 ft | 407 kts | 20° |
| 2026-05-05 15:24 | 46.25774 | -115.73441 | 34964 ft | 407 kts | 20° |
| 2026-05-05 15:24 | 46.30939 | -115.70103 | 34955 ft | 406 kts | 20° |
| 2026-05-05 15:25 | 46.36100 | -115.66759 | 35001 ft | 406 kts | 20° |
| 2026-05-05 15:25 | 46.41263 | -115.63409 | 34963 ft | 406 kts | 20° |
| 2026-05-05 15:26 | 46.46422 | -115.60054 | 34968 ft | 406 kts | 20° |
| 2026-05-05 15:26 | 46.51578 | -115.56693 | 34949 ft | 406 kts | 20° |
| 2026-05-05 15:27 | 46.56721 | -115.53334 | 34950 ft | 405 kts | 20° |
| 2026-05-05 15:27 | 46.61863 | -115.49970 | 34948 ft | 405 kts | 20° |
| 2026-05-05 15:28 | 46.67016 | -115.46590 | 34944 ft | 406 kts | 20° |
| 2026-05-05 15:28 | 46.72165 | -115.43206 | 34967 ft | 405 kts | 20° |
| 2026-05-05 15:29 | 46.77311 | -115.39815 | 34959 ft | 406 kts | 20° |
| 2026-05-05 15:29 | 46.82455 | -115.36420 | 34960 ft | 406 kts | 20° |
| 2026-05-05 15:30 | 46.87597 | -115.33020 | 34953 ft | 404 kts | 20° |
| 2026-05-05 15:30 | 46.92727 | -115.29621 | 34974 ft | 405 kts | 20° |
| 2026-05-05 15:31 | 46.97847 | -115.26220 | 34411 ft | 415 kts | 20° |
| 2026-05-05 15:31 | 47.00485 | -115.24468 | 33741 ft | 415 kts | 20° |
| 2026-05-05 15:31 | 47.03164 | -115.22684 | 32685 ft | 418 kts | 20° |
| 2026-05-05 15:31 | 47.05770 | -115.20945 | 31823 ft | 417 kts | 20° |
| 2026-05-05 15:32 | 47.08420 | -115.19176 | 30995 ft | 416 kts | 20° |
| 2026-05-05 15:32 | 47.11037 | -115.17424 | 30314 ft | 412 kts | 20° |
| 2026-05-05 15:32 | 47.13633 | -115.15683 | 29624 ft | 408 kts | 20° |
| 2026-05-05 15:32 | 47.16205 | -115.13962 | 28884 ft | 404 kts | 20° |
| 2026-05-05 15:33 | 47.18746 | -115.12257 | 28243 ft | 399 kts | 20° |
| 2026-05-05 15:33 | 47.21263 | -115.10567 | 27604 ft | 396 kts | 20° |
| 2026-05-05 15:33 | 47.23757 | -115.08892 | 27005 ft | 392 kts | 20° |
| 2026-05-05 15:33 | 47.26230 | -115.07229 | 26381 ft | 389 kts | 20° |
| 2026-05-05 15:34 | 47.28679 | -115.05582 | 25775 ft | 386 kts | 20° |
| 2026-05-05 15:34 | 47.31116 | -115.03940 | 25198 ft | 383 kts | 20° |
| 2026-05-05 15:34 | 47.33537 | -115.02308 | 24614 ft | 380 kts | 20° |
| 2026-05-05 15:34 | 47.35934 | -115.00690 | 24033 ft | 378 kts | 20° |
| 2026-05-05 15:35 | 47.38319 | -114.99076 | 23431 ft | 376 kts | 20° |
| 2026-05-05 15:35 | 47.40687 | -114.97475 | 22783 ft | 373 kts | 21° |
| 2026-05-05 15:35 | 47.43042 | -114.95900 | 22175 ft | 368 kts | 19° |
| 2026-05-05 15:35 | 47.45460 | -114.94778 | 21615 ft | 362 kts | 10° |
| 2026-05-05 15:36 | 47.47923 | -114.94123 | 21058 ft | 358 kts | 6° |
| 2026-05-05 15:36 | 47.50392 | -114.93759 | 20556 ft | 355 kts | 0° |
| 2026-05-05 15:36 | 47.52848 | -114.93897 | 20008 ft | 352 kts | 355° |
| 2026-05-05 15:36 | 47.55281 | -114.94154 | 19476 ft | 350 kts | 355° |
| 2026-05-05 15:37 | 47.57713 | -114.94413 | 18943 ft | 349 kts | 355° |
| 2026-05-05 15:37 | 47.60133 | -114.94665 | 18392 ft | 348 kts | 355° |
| 2026-05-05 15:37 | 47.62541 | -114.94908 | 17809 ft | 346 kts | 355° |
| 2026-05-05 15:37 | 47.64943 | -114.95145 | 17216 ft | 345 kts | 355° |
| 2026-05-05 15:38 | 47.67330 | -114.95378 | 16677 ft | 343 kts | 355° |
| 2026-05-05 15:38 | 47.69705 | -114.95608 | 16163 ft | 341 kts | 355° |
| 2026-05-05 15:38 | 47.72066 | -114.95836 | 15642 ft | 339 kts | 355° |
| 2026-05-05 15:38 | 47.74411 | -114.96063 | 15124 ft | 337 kts | 355° |
| 2026-05-05 15:39 | 47.76745 | -114.96289 | 14612 ft | 335 kts | 355° |
| 2026-05-05 15:39 | 47.79043 | -114.96146 | 14017 ft | 333 kts | 11° |
| 2026-05-05 15:39 | 47.81208 | -114.94848 | 13470 ft | 339 kts | 26° |
| 2026-05-05 15:39 | 47.83112 | -114.92832 | 12941 ft | 343 kts | 40° |
| 2026-05-05 15:40 | 47.84654 | -114.90070 | 12487 ft | 351 kts | 50° |
| 2026-05-05 15:40 | 47.86100 | -114.87095 | 11958 ft | 357 kts | 51° |
| 2026-05-05 15:40 | 47.87561 | -114.84082 | 11422 ft | 356 kts | 51° |
| 2026-05-05 15:40 | 47.89009 | -114.81111 | 10955 ft | 352 kts | 52° |
| 2026-05-05 15:41 | 47.90428 | -114.78215 | 10757 ft | 339 kts | 52° |
| 2026-05-05 15:41 | 47.91798 | -114.75432 | 10643 ft | 327 kts | 52° |
| 2026-05-05 15:41 | 47.93118 | -114.72759 | 10504 ft | 314 kts | 51° |
| 2026-05-05 15:41 | 47.94393 | -114.70186 | 10371 ft | 302 kts | 51° |
| 2026-05-05 15:42 | 47.95620 | -114.67711 | 10246 ft | 291 kts | 52° |
| 2026-05-05 15:42 | 47.96800 | -114.65332 | 10123 ft | 279 kts | 52° |
| 2026-05-05 15:42 | 47.97930 | -114.63049 | 10021 ft | 268 kts | 52° |
| 2026-05-05 15:42 | 47.99011 | -114.60865 | 9882 ft | 257 kts | 52° |
| 2026-05-05 15:43 | 48.00056 | -114.58747 | 9554 ft | 253 kts | 52° |
| 2026-05-05 15:43 | 48.01156 | -114.56749 | 9223 ft | 246 kts | 41° |
| 2026-05-05 15:43 | 48.02475 | -114.55178 | 9012 ft | 237 kts | 36° |
| 2026-05-05 15:43 | 48.03797 | -114.53803 | 8952 ft | 227 kts | 34° |
| 2026-05-05 15:44 | 48.05078 | -114.52489 | 8846 ft | 222 kts | 34° |
| 2026-05-05 15:44 | 48.06350 | -114.51186 | 8544 ft | 220 kts | 34° |
| 2026-05-05 15:44 | 48.07609 | -114.49890 | 8243 ft | 218 kts | 34° |
| 2026-05-05 15:44 | 48.08842 | -114.48619 | 7961 ft | 213 kts | 35° |
| 2026-05-05 15:45 | 48.10040 | -114.47379 | 7711 ft | 205 kts | 35° |
| 2026-05-05 15:45 | 48.11190 | -114.46187 | 7426 ft | 199 kts | 36° |
| 2026-05-05 15:45 | 48.12310 | -114.45026 | 7158 ft | 195 kts | 36° |
| 2026-05-05 15:45 | 48.13425 | -114.43868 | 6898 ft | 196 kts | 36° |
| 2026-05-05 15:46 | 48.14545 | -114.42708 | 6645 ft | 195 kts | 36° |
| 2026-05-05 15:46 | 48.15656 | -114.41556 | 6390 ft | 193 kts | 37° |
| 2026-05-05 15:46 | 48.16761 | -114.40410 | 6126 ft | 193 kts | 37° |
| 2026-05-05 15:46 | 48.17869 | -114.39263 | 5878 ft | 194 kts | 37° |
| 2026-05-05 15:47 | 48.18975 | -114.38114 | 5599 ft | 191 kts | 36° |
| 2026-05-05 15:47 | 48.19685 | -114.37376 | 5455 ft | 185 kts | 36° |
| 2026-05-05 15:47 | 48.21055 | -114.35951 | 5098 ft | 172 kts | 36° |
| 2026-05-05 15:47 | 48.22022 | -114.34944 | 4909 ft | 170 kts | 36° |
| 2026-05-05 15:48 | 48.22988 | -114.33945 | 4675 ft | 167 kts | 36° |
| 2026-05-05 15:48 | 48.23920 | -114.32972 | 4458 ft | 162 kts | 35° |
| 2026-05-05 15:48 | 48.24851 | -114.32002 | 4212 ft | 162 kts | 36° |
| 2026-05-05 15:48 | 48.25762 | -114.31059 | 3994 ft | 157 kts | 37° |
| 2026-05-05 15:49 | 48.26664 | -114.30120 | 3782 ft | 158 kts | 36° |
| 2026-05-05 15:49 | 48.27561 | -114.29175 | 3580 ft | 153 kts | 38° |
| 2026-05-05 15:49 | 48.28439 | -114.28270 | 3312 ft | 154 kts | 35° |
| 2026-05-05 15:49 | 48.29312 | -114.27359 | 3129 ft | 153 kts | 36° |
| 2026-05-05 15:50 | 48.30163 | -114.26480 | 2989 ft | 147 kts | 37° |
| 2026-05-05 15:50 | 48.30912 | -114.25699 | 2977 ft | 104 kts | 34° |
| 2026-05-05 15:50 | 48.31317 | -114.25274 | 2980 ft | 38 kts | 34° |
| 2026-05-05 15:50 | 48.31529 | -114.25055 | 2978 ft | 35 kts | 35° |
| 2026-05-05 15:51 | 48.31702 | -114.24873 | 2979 ft | 21 kts | 34° |
| 2026-05-05 15:51 | 48.31746 | -114.24704 | 2980 ft | 18 kts | 128° |
| 2026-05-05 15:51 | 48.31637 | -114.24729 | 2980 ft | 17 kts | 211° |
| 2026-05-05 15:51 | 48.31536 | -114.24830 | 2979 ft | 17 kts | 217° |
| 2026-05-05 15:52 | 48.31447 | -114.24833 | 2980 ft | 12 kts | 176° |
| 2026-05-05 15:52 | 48.31387 | -114.24859 | 2980 ft | 0 kts | 198° |